Time;durP1;ratioP1;P1;durP2;ratioP2;P2;SDS_P1;SDS_P2;PMS_P1;PMS_P2;Temp;Humidity;BMP_temperature;BMP_pressure;BME280_temperature;BME280_humidity;BME280_pressure;Samples;Min_cycle;Max_cycle;Signal;HPM_P1;HPM_P2
2024/01/02 00:01:28;;;;;;;;;;;;;;;5.96;99.56;94951.41;5055301;28;1040;-63
2024/01/02 00:03:54;;;;;;;;;;;;;;;5.72;100.00;94947.25;5055241;28;1028;-63
2024/01/02 00:06:19;;;;;;;;;;;;;;;5.74;100.00;94947.94;5055539;28;1041;-63
2024/01/02 00:08:46;;;;;;;;;;;;;;;5.78;99.40;94954.66;5055315;28;1032;-63
2024/01/02 00:11:12;;;;;;;;;;;;;;;5.81;99.85;94948.25;5055105;28;1083;-63
2024/01/02 00:13:38;;;;;;;;;;;;;;;5.76;100.00;94953.13;5055513;28;1176;-63
2024/01/02 00:16:04;;;;;;;;;;;;;;;5.63;100.00;94956.88;5037508;28;1034;-63
2024/01/02 00:18:30;;;;;;;;;;;;;;;5.75;100.00;94964.69;5054744;28;1232;-63
2024/01/02 00:20:56;;;;;;;;;;;;;;;5.80;100.00;94970.44;5055230;28;1989;-62
2024/01/02 00:23:22;;;;;;;;;;;;;;;5.98;100.00;94962.72;5055386;28;984;-63
2024/01/02 00:25:48;;;;;;;;;;;;;;;6.13;100.00;94957.81;5054810;28;1040;-62
2024/01/02 00:28:14;;;;;;;;;;;;;;;6.14;99.28;94964.81;5055056;28;1155;-63
2024/01/02 00:30:40;;;;;;;;;;;;;;;6.17;98.57;94962.72;5054842;28;1029;-62
2024/01/02 00:33:06;;;;;;;;;;;;;;;6.11;98.47;94965.94;5055062;28;971;-63
2024/01/02 00:35:32;;;;;;;;;;;;;;;6.03;99.03;94961.31;5054669;28;1057;-63
2024/01/02 00:38:02;;;;;;;;;;;;;;;5.82;99.13;94958.75;5055012;28;970;-63
2024/01/02 00:40:28;;;;;;;;;;;;;;;5.64;100.00;94953.25;5054545;28;1996;-63
2024/01/02 00:42:54;;;;;;;;;;;;;;;5.79;100.00;94953.69;5054814;28;1057;-63
2024/01/02 00:45:20;;;;;;;;;;;;;;;5.89;100.00;94951.06;5054844;28;1115;-63
2024/01/02 00:47:46;;;;;;;;;;;;;;;5.98;100.00;94955.56;5054791;28;975;-63
2024/01/02 00:50:12;;;;;;;;;;;;;;;5.95;99.87;94949.66;5054443;28;1039;-63
2024/01/02 00:52:38;;;;;;;;;;;;;;;5.85;100.00;94949.66;5054679;28;1042;-63
2024/01/02 00:55:05;;;;;;;;;;;;;;;5.64;100.00;94952.41;5054716;28;1053;-63
2024/01/02 00:57:31;;;;;;;;;;;;;;;5.72;100.00;94949.06;5054574;28;1029;-63
2024/01/02 00:59:58;;;;;;;;;;;;;;;5.90;100.00;94944.78;5054248;28;1985;-63
2024/01/02 01:02:24;;;;;;;;;;;;;;;6.05;100.00;94956.72;5054233;28;1046;-63
2024/01/02 01:04:50;;;;;;;;;;;;;;;6.05;100.00;94955.84;5053847;28;982;-63
2024/01/02 01:07:16;;;;;;;;;;;;;;;6.08;99.60;94952.09;5053432;28;1107;-63
2024/01/02 01:09:42;;;;;;;;;;;;;;;6.04;100.00;94946.22;5054350;28;1057;-63
2024/01/02 01:12:08;;;;;;;;;;;;;;;5.91;100.00;94938.50;5054266;28;970;-63
2024/01/02 01:14:35;;;;;;;;;;;;;;;5.90;100.00;94939.47;5054036;28;1007;-63
2024/01/02 01:17:01;;;;;;;;;;;;;;;6.00;100.00;94944.81;5036465;28;1082;-63
2024/01/02 01:19:27;;;;;;;;;;;;;;;6.03;100.00;94945.38;5036245;28;1918;-63
2024/01/02 01:21:53;;;;;;;;;;;;;;;6.09;100.00;94935.19;5054279;28;1053;-63
2024/01/02 01:24:19;;;;;;;;;;;;;;;5.93;100.00;94947.16;5054008;28;1033;-63
2024/01/02 01:26:45;;;;;;;;;;;;;;;6.03;100.00;94953.34;5053902;28;776;-63
2024/01/02 01:29:12;;;;;;;;;;;;;;;6.10;100.00;94948.31;5053723;28;1159;-63
2024/01/02 01:31:38;;;;;;;;;;;;;;;6.10;100.00;94950.97;5054033;28;971;-62
2024/01/02 01:34:04;;;;;;;;;;;;;;;5.85;100.00;94942.53;5054016;28;999;-63
2024/01/02 01:36:30;;;;;;;;;;;;;;;5.71;100.00;94944.72;5053670;28;1036;-63
2024/01/02 01:38:56;;;;;;;;;;;;;;;5.86;100.00;94941.56;5053891;28;1995;-63
2024/01/02 01:41:22;;;;;;;;;;;;;;;5.88;100.00;94944.09;5053551;28;1032;-63
2024/01/02 01:43:48;;;;;;;;;;;;;;;5.90;100.00;94938.63;5053710;28;969;-63
2024/01/02 01:46:15;;;;;;;;;;;;;;;5.87;100.00;94937.09;5053393;28;1091;-63
2024/01/02 01:48:41;;;;;;;;;;;;;;;5.86;100.00;94936.25;5053434;28;1127;-63
2024/01/02 01:51:07;;;;;;;;;;;;;;;5.75;100.00;94931.06;5053629;28;1056;-63
2024/01/02 01:53:34;;;;;;;;;;;;;;;5.77;100.00;94930.94;5053272;28;1036;-63
2024/01/02 01:56:00;;;;;;;;;;;;;;;5.83;100.00;94919.78;5053537;28;1037;-63
2024/01/02 01:58:27;;;;;;;;;;;;;;;5.79;100.00;94927.16;5053286;28;1058;-63
2024/01/02 02:00:53;;;;;;;;;;;;;;;5.72;100.00;94922.53;5053135;28;1905;-63
2024/01/02 02:03:20;;;;;;;;;;;;;;;5.90;100.00;94922.69;5053402;28;1054;-63
2024/01/02 02:05:46;;;;;;;;;;;;;;;6.05;100.00;94930.16;5053322;28;965;-63
2024/01/02 02:08:12;;;;;;;;;;;;;;;6.22;100.00;94922.47;5053112;28;1024;-63
2024/01/02 02:10:38;;;;;;;;;;;;;;;6.06;100.00;94920.38;5053379;28;1064;-63
2024/01/02 02:13:04;;;;;;;;;;;;;;;5.94;100.00;94913.47;5053389;28;978;-63
2024/01/02 02:15:30;;;;;;;;;;;;;;;5.97;100.00;94914.06;5052987;28;944;-63
2024/01/02 02:17:56;;;;;;;;;;;;;;;6.12;100.00;94917.16;5052740;28;1081;-63
2024/01/02 02:20:22;;;;;;;;;;;;;;;6.12;100.00;94914.50;5053153;28;1914;-63
2024/01/02 02:22:49;;;;;;;;;;;;;;;6.01;100.00;94914.63;5053043;28;1032;-63
2024/01/02 02:25:16;;;;;;;;;;;;;;;6.00;100.00;94905.84;5053108;28;1027;-63
2024/01/02 02:27:42;;;;;;;;;;;;;;;5.98;100.00;94897.19;5053023;28;1174;-63
2024/01/02 02:30:08;;;;;;;;;;;;;;;6.08;100.00;94896.34;5053004;28;979;-63
2024/01/02 02:32:34;;;;;;;;;;;;;;;6.03;100.00;94902.06;5053330;28;974;-63
2024/01/02 02:35:00;;;;;;;;;;;;;;;6.06;100.00;94899.16;5052957;28;1023;-63
2024/01/02 02:37:26;;;;;;;;;;;;;;;6.13;100.00;94904.72;5053140;28;948;-63
2024/01/02 02:39:52;;;;;;;;;;;;;;;6.14;100.00;94912.53;5053092;28;1913;-63
2024/01/02 02:42:18;;;;;;;;;;;;;;;6.15;100.00;94897.47;5053100;28;982;-63
2024/01/02 02:44:44;;;;;;;;;;;;;;;6.14;100.00;94896.63;5052879;28;982;-63
2024/01/02 02:47:10;;;;;;;;;;;;;;;6.04;100.00;94898.44;5052704;28;960;-63
2024/01/02 02:49:37;;;;;;;;;;;;;;;6.00;100.00;94899.72;5053028;28;959;-63
2024/01/02 02:52:03;;;;;;;;;;;;;;;6.07;100.00;94900.84;5053152;28;972;-63
2024/01/02 02:54:29;;;;;;;;;;;;;;;6.22;100.00;94909.19;5052627;28;1100;-63
2024/01/02 02:56:56;;;;;;;;;;;;;;;6.31;100.00;94903.03;5052731;28;1087;-63
2024/01/02 02:59:22;;;;;;;;;;;;;;;6.33;100.00;94893.13;5052519;28;1910;-63
2024/01/02 03:01:48;;;;;;;;;;;;;;;6.13;100.00;94897.63;5052626;28;976;-63
2024/01/02 03:04:14;;;;;;;;;;;;;;;6.17;100.00;94901.66;5052861;28;979;-63
2024/01/02 03:06:40;;;;;;;;;;;;;;;6.19;100.00;94894.38;5052839;28;1025;-63
2024/01/02 03:09:06;;;;;;;;;;;;;;;6.12;100.00;94898.56;5052604;28;1032;-63
2024/01/02 03:11:32;;;;;;;;;;;;;;;5.87;100.00;94903.44;5052631;28;990;-63
2024/01/02 03:13:58;;;;;;;;;;;;;;;5.96;100.00;94903.63;5052839;28;1003;-63
2024/01/02 03:16:24;;;;;;;;;;;;;;;6.02;100.00;94901.22;5052673;28;1041;-63
2024/01/02 03:18:50;;;;;;;;;;;;;;;6.01;100.00;94902.22;5052365;28;1077;-63
2024/01/02 03:21:16;;;;;;;;;;;;;;;5.99;100.00;94901.50;5052546;28;1971;-63
2024/01/02 03:23:42;;;;;;;;;;;;;;;6.12;100.00;94908.38;5035122;28;979;-63
2024/01/02 03:26:10;;;;;;;;;;;;;;;5.90;100.00;94902.34;5052764;28;1066;-63
2024/01/02 03:28:36;;;;;;;;;;;;;;;5.90;100.00;94896.16;5052558;28;1163;-63
2024/01/02 03:31:03;;;;;;;;;;;;;;;5.90;100.00;94910.28;5055984;28;1135;-63
2024/01/02 03:33:29;;;;;;;;;;;;;;;6.03;100.00;94907.38;5056150;28;980;-63
2024/01/02 03:35:55;;;;;;;;;;;;;;;6.07;100.00;94911.44;5056536;28;991;-63
2024/01/02 03:38:21;;;;;;;;;;;;;;;5.99;100.00;94909.47;5055822;28;1214;-63
2024/01/02 03:40:47;;;;;;;;;;;;;;;6.09;100.00;94914.81;5056127;28;1906;-63
2024/01/02 03:43:13;;;;;;;;;;;;;;;6.12;100.00;94914.50;5055694;28;1048;-63
2024/01/02 03:45:39;;;;;;;;;;;;;;;6.20;100.00;94906.69;5055734;28;1036;-63
2024/01/02 03:48:05;;;;;;;;;;;;;;;6.15;100.00;94898.31;5056051;28;1052;-63
2024/01/02 03:50:31;;;;;;;;;;;;;;;6.19;100.00;94905.00;5055601;28;1083;-62
2024/01/02 03:52:57;;;;;;;;;;;;;;;6.25;100.00;94898.31;5055910;28;1075;-63
2024/01/02 03:55:23;;;;;;;;;;;;;;;6.07;100.00;94898.19;5055595;28;977;-63
2024/01/02 03:57:49;;;;;;;;;;;;;;;6.07;100.00;94898.19;5055614;28;977;-62
2024/01/02 04:00:15;;;;;;;;;;;;;;;6.22;100.00;94894.13;5055250;28;1914;-64
2024/01/02 04:02:41;;;;;;;;;;;;;;;6.22;100.00;94895.91;5037744;28;1095;-63
2024/01/02 04:05:07;;;;;;;;;;;;;;;6.16;100.00;94889.34;5055726;28;1036;-66
2024/01/02 04:07:33;;;;;;;;;;;;;;;6.19;100.00;94902.34;5055559;28;982;-63
2024/01/02 04:09:59;;;;;;;;;;;;;;;6.20;100.00;94890.78;5055479;28;961;-63
2024/01/02 04:12:25;;;;;;;;;;;;;;;6.05;100.00;94895.66;5055212;28;1048;-61
2024/01/02 04:14:51;;;;;;;;;;;;;;;6.03;100.00;94894.97;5055221;28;1028;-62
2024/01/02 04:17:17;;;;;;;;;;;;;;;6.15;100.00;94906.28;5055154;28;1139;-61
2024/01/02 04:19:43;;;;;;;;;;;;;;;6.20;100.00;94904.03;5055452;28;1909;-62
2024/01/02 04:22:09;;;;;;;;;;;;;;;6.11;100.00;94907.53;5055330;28;1072;-62
2024/01/02 04:24:35;;;;;;;;;;;;;;;6.08;100.00;94906.97;5055639;28;971;-63
2024/01/02 04:27:01;;;;;;;;;;;;;;;6.08;100.00;94901.66;5055446;28;1007;-62
2024/01/02 04:29:27;;;;;;;;;;;;;;;6.22;100.00;94898.56;5055093;28;1222;-62
2024/01/02 04:31:53;;;;;;;;;;;;;;;6.22;100.00;94895.91;5055091;28;1044;-62
2024/01/02 04:34:19;;;;;;;;;;;;;;;6.14;100.00;94891.31;5054848;28;1031;-62
2024/01/02 04:36:45;;;;;;;;;;;;;;;6.13;100.00;94889.66;5054949;28;1061;-61
2024/01/02 04:39:11;;;;;;;;;;;;;;;6.30;100.00;94884.59;5054774;28;1995;-62
2024/01/02 04:41:37;;;;;;;;;;;;;;;6.30;100.00;94888.09;5054677;28;974;-62
2024/01/02 04:44:03;;;;;;;;;;;;;;;6.35;100.00;94888.50;5054623;28;1091;-63
2024/01/02 04:46:29;;;;;;;;;;;;;;;6.32;100.00;94899.41;5054816;28;1059;-63
2024/01/02 04:48:55;;;;;;;;;;;;;;;6.19;100.00;94889.09;5054704;28;1061;-62
2024/01/02 04:51:21;;;;;;;;;;;;;;;6.10;100.00;94887.25;5054358;28;989;-64
2024/01/02 04:53:47;;;;;;;;;;;;;;;6.05;100.00;94893.00;5054767;28;1101;-64
2024/01/02 04:56:13;;;;;;;;;;;;;;;6.08;100.00;94897.19;5054391;28;1032;-64
2024/01/02 04:58:39;;;;;;;;;;;;;;;6.06;100.00;94899.97;5054377;28;1032;-64
2024/01/02 05:01:05;;;;;;;;;;;;;;;6.06;100.00;94899.97;5036874;28;1914;-63
2024/01/02 05:03:31;;;;;;;;;;;;;;;6.10;100.00;94905.00;5054482;28;982;-63
2024/01/02 05:05:57;;;;;;;;;;;;;;;6.03;100.00;94902.06;5054468;28;969;-62
2024/01/02 05:08:23;;;;;;;;;;;;;;;5.87;100.00;94907.91;5054481;28;978;-62
2024/01/02 05:10:49;;;;;;;;;;;;;;;5.85;100.00;94909.84;5054176;28;1134;-63
2024/01/02 05:13:15;;;;;;;;;;;;;;;5.92;100.00;94913.63;5036618;28;1033;-63
2024/01/02 05:15:41;;;;;;;;;;;;;;;5.95;100.00;94912.50;5054319;28;992;-63
2024/01/02 05:18:07;;;;;;;;;;;;;;;5.99;100.00;94913.94;5053939;28;1082;-65
2024/01/02 05:20:33;;;;;;;;;;;;;;;6.04;100.00;94917.03;5053986;28;1993;-63
2024/01/02 05:23:03;;;;;;;;;;;;;;;6.03;100.00;94910.88;5054258;28;958;-63
2024/01/02 05:25:29;;;;;;;;;;;;;;;5.99;100.00;94916.59;5053970;28;1035;-62
2024/01/02 05:27:56;;;;;;;;;;;;;;;5.98;100.00;94915.75;5053757;28;1206;-62
2024/01/02 05:30:22;;;;;;;;;;;;;;;5.90;100.00;94920.91;5053707;28;1106;-62
2024/01/02 05:32:47;;;;;;;;;;;;;;;6.05;100.00;94926.66;5054078;28;1167;-63
2024/01/02 05:35:13;;;;;;;;;;;;;;;6.05;100.00;94919.53;5053846;28;1070;-62
2024/01/02 05:37:39;;;;;;;;;;;;;;;5.99;100.00;94922.72;5053818;28;1046;-62
2024/01/02 05:40:07;;;;;;;;;;;;;;;6.00;100.00;94927.06;5053863;28;1914;-63
2024/01/02 05:42:33;;;;;;;;;;;;;;;6.00;100.00;94939.53;5053363;28;1088;-63
2024/01/02 05:44:59;;;;;;;;;;;;;;;5.76;100.00;94946.00;5053569;28;1053;-63
2024/01/02 05:47:25;;;;;;;;;;;;;;;5.75;100.00;94947.00;5053488;28;1073;-63
2024/01/02 05:49:51;;;;;;;;;;;;;;;5.75;100.00;94948.78;5053689;28;984;-62
2024/01/02 05:52:17;;;;;;;;;;;;;;;5.84;100.00;94958.56;5052897;28;1099;-63
2024/01/02 05:54:43;;;;;;;;;;;;;;;5.84;100.00;94969.19;5053411;28;1126;-63
2024/01/02 05:57:10;;;;;;;;;;;;;;;5.86;100.00;94967.25;5035676;28;1058;-63
2024/01/02 05:59:35;;;;;;;;;;;;;;;5.73;100.00;94967.50;5053361;28;2011;-63
2024/01/02 06:02:02;;;;;;;;;;;;;;;5.66;100.00;94976.97;5053676;28;928;-62
2024/01/02 06:04:28;;;;;;;;;;;;;;;5.56;100.00;94982.25;5053368;28;1155;-62
2024/01/02 06:06:54;;;;;;;;;;;;;;;5.60;100.00;94982.84;5053381;28;1024;-63
2024/01/02 06:09:20;;;;;;;;;;;;;;;5.58;100.00;94996.22;5053220;28;1082;-62
2024/01/02 06:11:46;;;;;;;;;;;;;;;5.67;100.00;94998.06;5053344;28;975;-63
2024/01/02 06:14:12;;;;;;;;;;;;;;;5.86;100.00;95004.38;5035592;28;1011;-63
2024/01/02 06:16:38;;;;;;;;;;;;;;;5.98;100.00;95010.47;5053342;28;967;-64
2024/01/02 06:19:04;;;;;;;;;;;;;;;5.94;100.00;95009.88;5052892;28;1918;-64
2024/01/02 06:21:30;;;;;;;;;;;;;;;5.91;100.00;95004.00;5053087;28;966;-63
2024/01/02 06:23:57;;;;;;;;;;;;;;;5.94;100.00;95009.88;5053176;28;979;-64
2024/01/02 06:26:23;;;;;;;;;;;;;;;6.06;100.00;95013.28;5052932;28;1032;-63
2024/01/02 06:28:49;;;;;;;;;;;;;;;6.14;100.00;95007.28;5035199;28;1170;-63
2024/01/02 06:31:15;;;;;;;;;;;;;;;6.11;100.00;95019.03;5052905;28;1095;-64
2024/01/02 06:33:44;;;;;;;;;;;;;;;6.19;100.00;95011.19;5053173;28;974;-63
2024/01/02 06:36:10;;;;;;;;;;;;;;;6.28;100.00;95008.69;5053244;28;1000;-64
2024/01/02 06:38:37;;;;;;;;;;;;;;;6.32;100.00;95010.09;5035267;28;1028;-63
2024/01/02 06:41:03;;;;;;;;;;;;;;;6.17;100.00;94991.91;5052897;28;1902;-64
2024/01/02 06:43:29;;;;;;;;;;;;;;;6.10;100.00;94985.47;5053060;28;1030;-63
2024/01/02 06:45:55;;;;;;;;;;;;;;;6.20;100.00;94980.16;5053242;28;1054;-63
2024/01/02 06:48:21;;;;;;;;;;;;;;;6.29;100.00;94974.03;5035114;28;1024;-63
2024/01/02 06:50:47;;;;;;;;;;;;;;;6.42;100.00;94979.91;5052827;28;1094;-63
2024/01/02 06:53:13;;;;;;;;;;;;;;;6.60;100.00;94987.16;5052982;28;978;-63
2024/01/02 06:55:39;;;;;;;;;;;;;;;6.70;100.00;95005.78;5052798;28;969;-64
2024/01/02 06:58:06;;;;;;;;;;;;;;;6.76;100.00;94995.41;5052643;28;1021;-63
2024/01/02 07:00:32;;;;;;;;;;;;;;;6.79;100.00;95002.25;5052527;28;1993;-64
2024/01/02 07:03:01;;;;;;;;;;;;;;;6.82;100.00;95001.97;5052733;28;1123;-64
2024/01/02 07:05:27;;;;;;;;;;;;;;;6.92;100.00;95000.13;5055767;28;1053;-63
2024/01/02 07:07:53;;;;;;;;;;;;;;;6.94;100.00;95005.31;5056848;28;1071;-63
2024/01/02 07:10:19;;;;;;;;;;;;;;;6.91;100.00;95009.09;5056655;28;953;-63
2024/01/02 07:12:46;;;;;;;;;;;;;;;6.98;100.00;95017.34;5057073;28;999;-63
2024/01/02 07:15:12;;;;;;;;;;;;;;;7.02;100.00;95016.09;5056646;28;1052;-64
2024/01/02 07:17:40;;;;;;;;;;;;;;;7.02;100.00;95030.22;5056357;28;1217;-63
2024/01/02 07:20:06;;;;;;;;;;;;;;;7.13;100.00;95031.88;5056372;28;1902;-63
2024/01/02 07:22:32;;;;;;;;;;;;;;;7.21;100.00;95026.69;5056268;28;1184;-64
2024/01/02 07:24:58;;;;;;;;;;;;;;;7.12;100.00;95035.50;5056237;28;1088;-64
2024/01/02 07:27:25;;;;;;;;;;;;;;;7.05;100.00;95037.06;5055989;28;1225;-64
2024/01/02 07:29:51;;;;;;;;;;;;;;;7.04;100.00;95038.88;5056325;28;971;-63
2024/01/02 07:32:18;;;;;;;;;;;;;;;7.05;100.00;95037.06;5056129;28;1051;-63
2024/01/02 07:34:44;;;;;;;;;;;;;;;7.11;100.00;95043.63;5056141;28;994;-63
2024/01/02 07:37:11;;;;;;;;;;;;;;;7.13;100.00;95045.19;5056200;28;1113;-64
2024/01/02 07:39:37;;;;;;;;;;;;;;;7.07;100.00;95048.38;5055932;28;1906;-64
2024/01/02 07:42:08;;;;;;;;;;;;;;;6.96;100.00;95060.03;5056267;28;975;-63
2024/01/02 07:44:35;;;;;;;;;;;;;;;6.67;100.00;95064.50;5056034;28;1041;-64
2024/01/02 07:47:01;;;;;;;;;;;;;;;6.44;100.00;95068.25;5056086;28;1061;-64
2024/01/02 07:49:27;;;;;;;;;;;;;;;6.43;100.00;95066.59;5056101;28;1047;-64
2024/01/02 07:51:54;;;;;;;;;;;;;;;6.41;100.00;95060.56;5055768;28;1037;-64
2024/01/02 07:54:20;;;;;;;;;;;;;;;6.35;100.00;95053.13;5055649;28;1054;-65
2024/01/02 07:56:46;;;;;;;;;;;;;;;6.51;100.00;95047.31;5056003;28;1050;-64
2024/01/02 07:59:15;;;;;;;;;;;;;;;6.63;100.00;95066.59;5055740;28;1906;-64
2024/01/02 08:01:41;;;;;;;;;;;;;;;6.72;100.00;95063.09;5055927;28;1038;-64
2024/01/02 08:04:07;;;;;;;;;;;;;;;6.82;100.00;95063.94;5055692;28;1000;-64
2024/01/02 08:06:33;;;;;;;;;;;;;;;6.95;100.00;95063.66;5055376;28;1048;-64
2024/01/02 08:09:00;;;;;;;;;;;;;;;7.03;100.00;95073.56;5055428;28;1021;-65
2024/01/02 08:11:27;;;;;;;;;;;;;;;7.08;100.00;95081.16;5055655;28;1054;-60
2024/01/02 08:13:53;;;;;;;;;;;;;;;6.97;100.00;95082.13;5055628;28;1029;-61
2024/01/02 08:16:20;;;;;;;;;;;;;;;6.96;100.00;95091.06;5055110;28;1066;-61
2024/01/02 08:18:46;;;;;;;;;;;;;;;6.90;100.00;95088.97;5055215;28;1207;-61
2024/01/02 08:21:12;;;;;;;;;;;;;;;6.91;100.00;95090.66;5055198;28;1906;-62
2024/01/02 08:23:38;;;;;;;;;;;;;;;6.99;100.00;95082.81;5055478;28;1062;-61
2024/01/02 08:26:12;;;;;;;;;;;;;;;7.18;100.00;95088.13;5055217;28;1048;-61
2024/01/02 08:28:39;;;;;;;;;;;;;;;7.36;100.00;95096.22;5055060;28;1218;-61
2024/01/02 08:31:05;;;;;;;;;;;;;;;7.43;100.00;95101.78;5055311;28;976;-62
2024/01/02 08:33:31;;;;;;;;;;;;;;;7.32;100.00;95107.28;5054968;28;993;-62
2024/01/02 08:35:57;;;;;;;;;;;;;;;7.26;100.00;95100.69;5054911;28;1119;-62
2024/01/02 08:38:24;;;;;;;;;;;;;;;7.22;100.00;95108.13;5054766;28;1032;-61
2024/01/02 08:40:50;;;;;;;;;;;;;;;7.32;100.00;95117.91;5054954;28;1911;-61
2024/01/02 08:43:17;;;;;;;;;;;;;;;7.38;100.00;95118.19;5054701;28;1024;-61
2024/01/02 08:45:43;;;;;;;;;;;;;;;7.29;100.00;95127.03;5054788;28;1024;-61
2024/01/02 08:48:10;;;;;;;;;;;;;;;7.30;100.00;95133.16;5054975;28;1011;-61
2024/01/02 08:50:36;;;;;;;;;;;;;;;7.27;100.00;95126.31;5054910;28;991;-61
2024/01/02 08:53:03;;;;;;;;;;;;;;;7.13;100.00;95124.94;5054797;28;971;-61
2024/01/02 08:55:29;;;;;;;;;;;;;;;7.23;100.00;95133.75;5055029;28;1041;-61
2024/01/02 08:57:55;;;;;;;;;;;;;;;7.44;100.00;95135.41;5054940;28;970;-61
2024/01/02 09:00:21;;;;;;;;;;;;;;;7.39;100.00;95133.16;5054445;28;1906;-61
2024/01/02 09:02:47;;;;;;;;;;;;;;;7.42;100.00;95137.38;5054753;28;972;-62
2024/01/02 09:05:13;;;;;;;;;;;;;;;7.50;100.00;95134.84;5054351;28;1119;-61
2024/01/02 09:07:39;;;;;;;;;;;;;;;7.51;100.00;95128.53;5054216;28;996;-60
2024/01/02 09:10:05;;;;;;;;;;;;;;;7.51;100.00;95133.00;5054501;28;1036;-61
2024/01/02 09:12:31;;;;;;;;;;;;;;;7.61;100.00;95137.34;5054165;28;1084;-61
2024/01/02 09:14:57;;;;;;;;;;;;;;;7.76;100.00;95134.22;5054534;28;1052;-60
2024/01/02 09:17:23;;;;;;;;;;;;;;;7.88;100.00;95138.38;5054049;28;1077;-59
2024/01/02 09:19:49;;;;;;;;;;;;;;;7.97;100.00;95126.03;5053951;28;1902;-60
2024/01/02 09:22:16;;;;;;;;;;;;;;;8.04;100.00;95131.59;5053809;28;1145;-61
2024/01/02 09:24:44;;;;;;;;;;;;;;;8.10;100.00;95120.34;5054186;28;1064;-60
2024/01/02 09:27:10;;;;;;;;;;;;;;;8.23;100.00;95128.84;5053232;28;989;-60
2024/01/02 09:29:36;;;;;;;;;;;;;;;8.45;100.00;95124.16;5036152;28;1241;-61
2024/01/02 09:32:02;;;;;;;;;;;;;;;8.55;100.00;95109.78;5053923;28;1063;-61
2024/01/02 09:34:28;;;;;;;;;;;;;;;8.68;100.00;95100.59;5053675;28;1158;-61
2024/01/02 09:36:54;;;;;;;;;;;;;;;8.94;100.00;95090.88;5053969;28;979;-61
2024/01/02 09:39:20;;;;;;;;;;;;;;;9.22;100.00;95101.44;5053852;28;2017;-61
2024/01/02 09:42:05;;;;;;;;;;;;;;;9.40;100.00;95109.41;5053574;28;1881;-61
2024/01/02 09:44:31;;;;;;;;;;;;;;;9.73;100.00;95093.63;5053559;28;1032;-61
2024/01/02 09:46:57;;;;;;;;;;;;;;;9.66;100.00;95103.28;5053713;28;958;-61
2024/01/02 09:49:27;;;;;;;;;;;;;;;9.64;100.00;95108.78;5053353;28;1163;-61
2024/01/02 09:52:08;;;;;;;;;;;;;;;9.51;100.00;95106.50;5036110;28;967;-61
2024/01/02 09:54:50;;;;;;;;;;;;;;;9.46;100.00;95095.44;5053310;28;1076;-61
2024/01/02 09:57:29;;;;;;;;;;;;;;;9.54;100.00;95086.66;5053564;28;1065;-61
2024/01/02 10:00:07;;;;;;;;;;;;;;;9.60;100.00;95088.72;5053275;28;2016;-61
2024/01/02 10:02:33;;;;;;;;;;;;;;;9.64;100.00;95084.75;5053574;28;971;-61
2024/01/02 10:05:03;;;;;;;;;;;;;;;9.66;100.00;95088.09;5053337;28;1024;-61
2024/01/02 10:07:29;;;;;;;;;;;;;;;9.63;100.00;95088.41;5053144;28;1099;-61
2024/01/02 10:10:12;;;;;;;;;;;;;;;9.68;100.00;95096.78;5053275;28;915;-60
2024/01/02 10:12:57;;;;;;;;;;;;;;;9.67;100.00;95100.44;5053569;28;1019;-61
2024/01/02 10:15:42;;;;;;;;;;;;;;;9.71;100.00;95085.81;5053078;28;1083;-60
2024/01/02 10:18:11;;;;;;;;;;;;;;;9.81;100.00;95079.50;5052550;28;1073;-61
2024/01/02 10:20:37;;;;;;;;;;;;;;;9.87;100.00;95085.03;5052951;28;1995;-61
2024/01/02 10:23:06;;;;;;;;;;;;;;;10.01;99.57;95074.78;5053275;28;978;-61
2024/01/02 10:25:32;;;;;;;;;;;;;;;10.11;99.32;95067.47;5053379;28;1062;-61
2024/01/02 10:28:06;;;;;;;;;;;;;;;10.20;100.00;95069.16;5053062;28;1147;-61
2024/01/02 10:30:35;;;;;;;;;;;;;;;10.31;99.13;95065.41;5052886;28;1028;-61
2024/01/02 10:33:02;;;;;;;;;;;;;;;10.22;100.00;95075.19;5052932;28;915;-61
2024/01/02 10:35:34;;;;;;;;;;;;;;;10.12;100.00;95067.31;5052686;28;1032;-61
2024/01/02 10:38:38;;;;;;;;;;;;;;;10.11;100.00;95073.66;5054089;28;1052;-61
2024/01/02 10:41:15;;;;;;;;;;;;;;;9.94;100.00;95064.72;4995425;28;1907;-59
2024/01/02 10:43:58;;;;;;;;;;;;;;;9.91;100.00;95056.19;4995390;28;1017;-63
2024/01/02 10:46:31;;;;;;;;;;;;;;;9.85;100.00;95054.16;5022896;28;1085;-63
2024/01/02 10:49:15;;;;;;;;;;;;;;;9.92;100.00;95057.84;5037046;28;1040;-60
2024/01/02 10:51:42;;;;;;;;;;;;;;;10.02;100.00;95057.75;5036859;28;933;-61
2024/01/02 10:54:22;;;;;;;;;;;;;;;10.03;100.00;95054.06;5036834;28;980;-61
2024/01/02 10:56:48;;;;;;;;;;;;;;;9.87;100.00;95055.66;5037030;28;1029;-60
2024/01/02 10:59:38;;;;;;;;;;;;;;;9.88;100.00;95038.63;5036595;28;1922;-61
2024/01/02 11:02:07;;;;;;;;;;;;;;;9.80;100.00;95035.94;4982957;28;1176;-61
2024/01/02 11:04:36;;;;;;;;;;;;;;;9.70;100.00;95035.22;5036535;28;977;-61
2024/01/02 11:07:06;;;;;;;;;;;;;;;9.82;100.00;95033.94;5036886;28;996;-61
2024/01/02 11:09:32;;;;;;;;;;;;;;;9.85;100.00;95043.50;5018953;28;1036;-61
2024/01/02 11:11:58;;;;;;;;;;;;;;;10.14;100.00;95054.63;5036862;28;990;-61
2024/01/02 11:14:25;;;;;;;;;;;;;;;10.09;100.00;95045.41;5036580;28;1028;-61
2024/01/02 11:16:52;;;;;;;;;;;;;;;9.97;100.00;95052.88;5036320;28;1258;-64
2024/01/02 11:19:22;;;;;;;;;;;;;;;9.93;100.00;95048.84;5036216;28;1906;-61
2024/01/02 11:21:54;;;;;;;;;;;;;;;9.93;100.00;95043.50;5036737;28;1032;-61
2024/01/02 11:24:22;;;;;;;;;;;;;;;9.96;100.00;95044.03;5036400;28;1122;-61
2024/01/02 11:26:49;;;;;;;;;;;;;;;10.02;100.00;95036.38;5036813;28;1025;-61
2024/01/02 11:29:18;;;;;;;;;;;;;;;10.03;100.00;95028.19;5053134;28;1218;-61
2024/01/02 11:31:47;;;;;;;;;;;;;;;10.19;100.00;95029.25;5055974;28;1084;-61
2024/01/02 11:34:31;;;;;;;;;;;;;;;10.41;100.00;95023.34;5055889;28;1100;-61
2024/01/02 11:37:00;;;;;;;;;;;;;;;10.64;100.00;95031.59;5038563;28;1065;-61
2024/01/02 11:39:32;;;;;;;;;;;;;;;10.69;100.00;95029.25;5055721;28;1902;-61
2024/01/02 11:42:06;;;;;;;;;;;;;;;10.56;100.00;95023.53;5038200;28;992;-61
2024/01/02 11:44:51;;;;;;;;;;;;;;;10.58;100.00;95023.38;5055830;28;1111;-61
2024/01/02 11:47:27;;;;;;;;;;;;;;;10.77;99.27;95028.41;5055688;28;1056;-61
2024/01/02 11:49:57;;;;;;;;;;;;;;;10.84;97.62;95025.94;5037504;28;1074;-62
2024/01/02 11:52:23;;;;;;;;;;;;;;;10.80;97.75;95020.09;5055729;28;1014;-62
2024/01/02 11:54:56;;;;;;;;;;;;;;;10.74;99.15;95024.25;5055672;28;958;-61
2024/01/02 11:57:27;;;;;;;;;;;;;;;10.85;98.96;95022.25;5055848;28;979;-62
2024/01/02 12:00:06;;;;;;;;;;;;;;;10.85;97.50;95024.91;5055769;28;1906;-62
2024/01/02 12:02:45;;;;;;;;;;;;;;;10.78;97.99;95019.41;5055435;28;1196;-61
2024/01/02 12:05:30;;;;;;;;;;;;;;;10.66;97.52;95018.03;5055303;28;1052;-62
2024/01/02 12:07:57;;;;;;;;;;;;;;;10.70;99.36;95022.09;5055394;28;1029;-61
2024/01/02 12:10:26;;;;;;;;;;;;;;;10.65;98.88;95014.53;5055358;28;1024;-61
2024/01/02 12:12:56;;;;;;;;;;;;;;;10.58;100.00;95002.00;5055346;28;1205;-61
2024/01/02 12:15:28;;;;;;;;;;;;;;;10.44;100.00;95001.66;5055478;28;1111;-61
2024/01/02 12:18:03;;;;;;;;;;;;;;;10.39;100.00;94995.94;5034026;28;1386;-61
2024/01/02 12:20:33;;;;;;;;;;;;;;;10.40;100.00;95005.66;5035129;28;1987;-61
2024/01/02 12:22:59;;;;;;;;;;;;;;;10.31;100.00;95003.94;5035549;28;969;-61
2024/01/02 12:25:26;;;;;;;;;;;;;;;10.34;100.00;95000.97;5035502;28;1045;-61
2024/01/02 12:27:52;;;;;;;;;;;;;;;10.30;100.00;95003.13;5035343;28;1409;-61
2024/01/02 12:30:38;;;;;;;;;;;;;;;10.13;100.00;94991.50;5035008;28;960;-62
2024/01/02 12:33:04;;;;;;;;;;;;;;;10.09;100.00;94991.97;5034908;28;1071;-61
2024/01/02 12:35:57;;;;;;;;;;;;;;;10.09;100.00;94998.19;5035093;28;1044;-61
2024/01/02 12:38:24;;;;;;;;;;;;;;;10.11;100.00;95006.00;5032017;28;1094;-61
2024/01/02 12:40:51;;;;;;;;;;;;;;;10.24;100.00;95009.06;5035106;28;1906;-61
2024/01/02 12:43:19;;;;;;;;;;;;;;;10.38;100.00;95006.78;5034747;28;1079;-61
2024/01/02 12:45:46;;;;;;;;;;;;;;;10.44;100.00;94998.97;5034952;28;894;-61
2024/01/02 12:48:16;;;;;;;;;;;;;;;10.34;100.00;94998.28;5034781;28;1037;-61
2024/01/02 12:50:47;;;;;;;;;;;;;;;10.45;100.00;95003.31;5034772;28;1099;-62
2024/01/02 12:53:14;;;;;;;;;;;;;;;10.56;100.00;95004.84;5034717;28;1065;-61
2024/01/02 12:55:43;;;;;;;;;;;;;;;10.59;100.00;95014.38;5034640;28;1118;-61
2024/01/02 12:58:11;;;;;;;;;;;;;;;10.68;100.00;95014.22;5034859;28;987;-61
2024/01/02 13:00:37;;;;;;;;;;;;;;;10.54;100.00;95015.69;5034591;28;1906;-61